sensor_id;sensor_type;location;lat;lon;timestamp;pressure;altitude;pressure_sealevel;temperature;humidity
83200;BME280;73092;49.132;8.920;2023-12-14T00:01:08;98343.03;;;5.32;100.00
83200;BME280;73092;49.132;8.920;2023-12-14T00:03:35;98338.75;;;5.29;100.00
83200;BME280;73092;49.132;8.920;2023-12-14T00:06:00;98342.03;;;5.38;100.00
83200;BME280;73092;49.132;8.920;2023-12-14T00:08:26;98345.53;;;5.37;100.00
83200;BME280;73092;49.132;8.920;2023-12-14T00:10:51;98345.63;;;5.33;100.00
83200;BME280;73092;49.132;8.920;2023-12-14T00:13:16;98355.88;;;5.40;100.00
83200;BME280;73092;49.132;8.920;2023-12-14T00:15:41;98354.16;;;5.39;100.00
83200;BME280;73092;49.132;8.920;2023-12-14T00:18:07;98357.66;;;5.38;100.00
83200;BME280;73092;49.132;8.920;2023-12-14T00:20:32;98360.84;;;5.49;100.00
83200;BME280;73092;49.132;8.920;2023-12-14T00:22:58;98366.00;;;5.52;100.00
83200;BME280;73092;49.132;8.920;2023-12-14T00:25:23;98382.19;;;5.63;100.00
83200;BME280;73092;49.132;8.920;2023-12-14T00:27:48;98371.06;;;5.58;100.00
83200;BME280;73092;49.132;8.920;2023-12-14T00:30:14;98376.09;;;5.64;100.00
83200;BME280;73092;49.132;8.920;2023-12-14T00:32:39;98380.41;;;5.65;100.00
83200;BME280;73092;49.132;8.920;2023-12-14T00:35:04;98381.47;;;5.58;100.00
83200;BME280;73092;49.132;8.920;2023-12-14T00:37:30;98382.31;;;5.59;100.00
83200;BME280;73092;49.132;8.920;2023-12-14T00:39:55;98383.88;;;5.66;100.00
83200;BME280;73092;49.132;8.920;2023-12-14T00:42:20;98383.03;;;5.65;100.00
83200;BME280;73092;49.132;8.920;2023-12-14T00:44:46;98384.78;;;5.65;100.00
83200;BME280;73092;49.132;8.920;2023-12-14T00:47:11;98387.50;;;5.60;100.00
83200;BME280;73092;49.132;8.920;2023-12-14T00:49:36;98396.25;;;5.57;100.00
83200;BME280;73092;49.132;8.920;2023-12-14T00:52:02;98394.53;;;5.56;100.00
83200;BME280;73092;49.132;8.920;2023-12-14T00:54:27;98404.97;;;5.56;100.00
83200;BME280;73092;49.132;8.920;2023-12-14T00:56:52;98402.34;;;5.58;100.00
83200;BME280;73092;49.132;8.920;2023-12-14T00:59:18;98405.75;;;5.60;100.00
83200;BME280;73092;49.132;8.920;2023-12-14T01:01:43;98421.31;;;5.63;100.00
83200;BME280;73092;49.132;8.920;2023-12-14T01:04:08;98427.44;;;5.61;100.00
83200;BME280;73092;49.132;8.920;2023-12-14T01:06:34;98418.84;;;5.59;100.00
83200;BME280;73092;49.132;8.920;2023-12-14T01:08:59;98424.03;;;5.59;100.00
83200;BME280;73092;49.132;8.920;2023-12-14T01:11:24;98426.66;;;5.57;100.00
83200;BME280;73092;49.132;8.920;2023-12-14T01:13:50;98436.16;;;5.61;100.00
83200;BME280;73092;49.132;8.920;2023-12-14T01:16:15;98445.69;;;5.62;100.00
83200;BME280;73092;49.132;8.920;2023-12-14T01:18:40;98447.22;;;5.69;100.00
83200;BME280;73092;49.132;8.920;2023-12-14T01:21:06;98453.38;;;5.67;100.00
83200;BME280;73092;49.132;8.920;2023-12-14T01:23:31;98463.00;;;5.65;100.00
83200;BME280;73092;49.132;8.920;2023-12-14T01:25:56;98469.97;;;5.64;100.00
83200;BME280;73092;49.132;8.920;2023-12-14T01:28:22;98469.97;;;5.64;100.00
83200;BME280;73092;49.132;8.920;2023-12-14T01:30:47;98471.66;;;5.65;100.00
83200;BME280;73092;49.132;8.920;2023-12-14T01:33:13;98474.28;;;5.65;100.00
83200;BME280;73092;49.132;8.920;2023-12-14T01:35:38;98475.84;;;5.72;100.00
83200;BME280;73092;49.132;8.920;2023-12-14T01:38:03;98481.94;;;5.71;100.00
83200;BME280;73092;49.132;8.920;2023-12-14T01:40:30;98486.94;;;5.80;100.00
83200;BME280;73092;49.132;8.920;2023-12-14T01:43:06;98491.94;;;5.90;100.00
83200;BME280;73092;49.132;8.920;2023-12-14T01:45:32;98499.94;;;5.82;100.00
83200;BME280;73092;49.132;8.920;2023-12-14T01:47:58;98499.16;;;5.78;100.00
83200;BME280;73092;49.132;8.920;2023-12-14T01:50:23;98501.75;;;5.78;100.00
83200;BME280;73092;49.132;8.920;2023-12-14T01:52:48;98508.75;;;5.76;100.00
83200;BME280;73092;49.132;8.920;2023-12-14T01:55:14;98513.03;;;5.80;100.00
83200;BME280;73092;49.132;8.920;2023-12-14T01:57:39;98518.25;;;5.80;100.00
83200;BME280;73092;49.132;8.920;2023-12-14T02:00:05;98513.03;;;5.80;100.00
83200;BME280;73092;49.132;8.920;2023-12-14T02:02:30;98522.63;;;5.78;100.00
83200;BME280;73092;49.132;8.920;2023-12-14T02:04:56;98519.16;;;5.78;100.00
83200;BME280;73092;49.132;8.920;2023-12-14T02:07:21;98520.09;;;5.75;100.00
83200;BME280;73092;49.132;8.920;2023-12-14T02:09:46;98520.09;;;5.75;100.00
83200;BME280;73092;49.132;8.920;2023-12-14T02:12:12;98542.66;;;5.76;100.00
83200;BME280;73092;49.132;8.920;2023-12-14T02:14:37;98530.44;;;5.78;100.00
83200;BME280;73092;49.132;8.920;2023-12-14T02:17:03;98534.81;;;5.78;100.00
83200;BME280;73092;49.132;8.920;2023-12-14T02:19:28;98535.66;;;5.78;100.00
83200;BME280;73092;49.132;8.920;2023-12-14T02:21:53;98538.25;;;5.80;100.00
83200;BME280;73092;49.132;8.920;2023-12-14T02:24:19;98537.22;;;5.86;100.00
83200;BME280;73092;49.132;8.920;2023-12-14T02:26:44;98538.94;;;5.87;100.00
83200;BME280;73092;49.132;8.920;2023-12-14T02:29:09;98542.44;;;5.86;100.00
83200;BME280;73092;49.132;8.920;2023-12-14T02:31:34;98539.81;;;5.87;100.00
83200;BME280;73092;49.132;8.920;2023-12-14T02:34:00;98551.00;;;5.91;100.00
83200;BME280;73092;49.132;8.920;2023-12-14T02:36:25;98545.03;;;5.87;100.00
83200;BME280;73092;49.132;8.920;2023-12-14T02:38:50;98558.09;;;5.86;100.00
83200;BME280;73092;49.132;8.920;2023-12-14T02:41:16;98549.38;;;5.87;100.00
83200;BME280;73092;49.132;8.920;2023-12-14T02:43:41;98554.59;;;5.87;100.00
83200;BME280;73092;49.132;8.920;2023-12-14T02:46:07;98562.38;;;5.88;100.00
83200;BME280;73092;49.132;8.920;2023-12-14T02:48:33;98567.59;;;5.88;100.00
83200;BME280;73092;49.132;8.920;2023-12-14T02:50:59;98569.34;;;5.89;100.00
83200;BME280;73092;49.132;8.920;2023-12-14T02:53:27;98571.97;;;5.88;100.00
83200;BME280;73092;49.132;8.920;2023-12-14T02:55:53;98578.88;;;5.89;100.00
83200;BME280;73092;49.132;8.920;2023-12-14T02:58:18;98578.88;;;5.89;100.00
83200;BME280;73092;49.132;8.920;2023-12-14T03:00:44;98586.63;;;5.92;100.00
83200;BME280;73092;49.132;8.920;2023-12-14T03:03:09;98589.25;;;5.92;100.00
83200;BME280;73092;49.132;8.920;2023-12-14T03:05:34;98587.53;;;5.91;100.00
83200;BME280;73092;49.132;8.920;2023-12-14T03:08:00;98587.53;;;5.91;100.00
83200;BME280;73092;49.132;8.920;2023-12-14T03:10:25;98592.75;;;5.91;100.00
83200;BME280;73092;49.132;8.920;2023-12-14T03:12:50;98597.94;;;5.92;100.00
83200;BME280;73092;49.132;8.920;2023-12-14T03:15:17;98597.97;;;5.91;100.00
83200;BME280;73092;49.132;8.920;2023-12-14T03:17:43;98599.81;;;5.87;100.00
83200;BME280;73092;49.132;8.920;2023-12-14T03:20:09;98609.31;;;5.88;100.00
83200;BME280;73092;49.132;8.920;2023-12-14T03:22:34;98612.78;;;5.89;100.00
83200;BME280;73092;49.132;8.920;2023-12-14T03:24:59;98610.09;;;5.92;100.00
83200;BME280;73092;49.132;8.920;2023-12-14T03:27:25;98610.97;;;5.94;100.00
83200;BME280;73092;49.132;8.920;2023-12-14T03:29:50;98616.19;;;5.94;100.00
83200;BME280;73092;49.132;8.920;2023-12-14T03:32:15;98620.50;;;5.95;100.00
83200;BME280;73092;49.132;8.920;2023-12-14T03:34:41;98623.94;;;5.97;100.00
83200;BME280;73092;49.132;8.920;2023-12-14T03:37:06;98621.25;;;6.00;100.00
83200;BME280;73092;49.132;8.920;2023-12-14T03:39:31;98631.72;;;5.98;100.00
83200;BME280;73092;49.132;8.920;2023-12-14T03:41:57;98635.88;;;6.07;100.00
83200;BME280;73092;49.132;8.920;2023-12-14T03:44:22;98636.00;;;6.01;100.00
83200;BME280;73092;49.132;8.920;2023-12-14T03:46:49;98636.94;;;5.98;100.00
83200;BME280;73092;49.132;8.920;2023-12-14T03:49:14;98637.91;;;5.96;100.00
83200;BME280;73092;49.132;8.920;2023-12-14T03:51:40;98648.34;;;5.96;100.00
83200;BME280;73092;49.132;8.920;2023-12-14T03:54:05;98656.69;;;6.10;100.00
83200;BME280;73092;49.132;8.920;2023-12-14T03:56:30;98658.63;;;6.02;100.00
83200;BME280;73092;49.132;8.920;2023-12-14T03:58:56;98662.03;;;6.04;100.00
83200;BME280;73092;49.132;8.920;2023-12-14T04:01:22;98663.91;;;5.99;100.00
83200;BME280;73092;49.132;8.920;2023-12-14T04:03:47;98672.69;;;5.95;100.00
83200;BME280;73092;49.132;8.920;2023-12-14T04:06:13;98683.13;;;5.95;100.00
83200;BME280;73092;49.132;8.920;2023-12-14T04:08:39;98679.72;;;5.93;100.00
83200;BME280;73092;49.132;8.920;2023-12-14T04:11:05;98688.38;;;5.92;100.00
83200;BME280;73092;49.132;8.920;2023-12-14T04:13:30;98691.88;;;5.91;100.00
83200;BME280;73092;49.132;8.920;2023-12-14T04:15:56;98698.03;;;5.88;100.00
83200;BME280;73092;49.132;8.920;2023-12-14T04:18:22;98698.88;;;5.89;100.00
83200;BME280;73092;49.132;8.920;2023-12-14T04:20:48;98698.03;;;5.88;100.00
83200;BME280;73092;49.132;8.920;2023-12-14T04:23:13;98701.44;;;5.93;100.00
83200;BME280;73092;49.132;8.920;2023-12-14T04:25:38;98711.88;;;5.93;100.00
83200;BME280;73092;49.132;8.920;2023-12-14T04:28:04;98709.25;;;5.92;100.00
83200;BME280;73092;49.132;8.920;2023-12-14T04:30:29;98711.03;;;5.90;100.00
83200;BME280;73092;49.132;8.920;2023-12-14T04:32:54;98716.22;;;5.93;100.00
83200;BME280;73092;49.132;8.920;2023-12-14T04:35:20;98722.31;;;5.93;100.00
83200;BME280;73092;49.132;8.920;2023-12-14T04:37:47;98724.06;;;5.93;100.00
83200;BME280;73092;49.132;8.920;2023-12-14T04:40:12;98724.78;;;5.98;100.00
83200;BME280;73092;49.132;8.920;2023-12-14T04:42:38;98726.53;;;5.99;100.00
83200;BME280;73092;49.132;8.920;2023-12-14T04:45:04;98731.75;;;5.99;100.00
83200;BME280;73092;49.132;8.920;2023-12-14T04:47:30;98730.91;;;5.97;100.00
83200;BME280;73092;49.132;8.920;2023-12-14T04:49:55;98745.72;;;5.96;100.00
83200;BME280;73092;49.132;8.920;2023-12-14T04:52:21;98742.28;;;5.94;100.00
83200;BME280;73092;49.132;8.920;2023-12-14T04:54:46;98753.56;;;5.95;100.00
83200;BME280;73092;49.132;8.920;2023-12-14T04:57:11;98739.66;;;5.94;100.00
83200;BME280;73092;49.132;8.920;2023-12-14T04:59:36;98742.31;;;5.93;100.00
83200;BME280;73092;49.132;8.920;2023-12-14T05:02:02;98747.53;;;5.93;100.00
83200;BME280;73092;49.132;8.920;2023-12-14T05:04:27;98744.03;;;5.94;100.00
83200;BME280;73092;49.132;8.920;2023-12-14T05:06:52;98753.59;;;5.93;100.00
83200;BME280;73092;49.132;8.920;2023-12-14T05:09:18;98767.50;;;5.94;100.00
83200;BME280;73092;49.132;8.920;2023-12-14T05:11:43;98772.72;;;5.94;100.00
83200;BME280;73092;49.132;8.920;2023-12-14T05:14:08;98775.31;;;5.94;100.00
83200;BME280;73092;49.132;8.920;2023-12-14T05:16:34;98780.53;;;5.94;100.00
83200;BME280;73092;49.132;8.920;2023-12-14T05:18:59;98795.31;;;5.95;100.00
83200;BME280;73092;49.132;8.920;2023-12-14T05:21:25;98802.22;;;5.97;100.00
83200;BME280;73092;49.132;8.920;2023-12-14T05:23:50;98803.00;;;6.01;100.00
83200;BME280;73092;49.132;8.920;2023-12-14T05:26:15;98815.00;;;6.11;100.00
83200;BME280;73092;49.132;8.920;2023-12-14T05:28:41;98811.47;;;6.12;100.00
83200;BME280;73092;49.132;8.920;2023-12-14T05:31:06;98817.63;;;6.10;100.00
83200;BME280;73092;49.132;8.920;2023-12-14T05:33:31;98819.44;;;6.06;100.00
83200;BME280;73092;49.132;8.920;2023-12-14T05:35:59;98822.09;;;6.03;100.00
83200;BME280;73092;49.132;8.920;2023-12-14T05:38:24;98827.25;;;6.06;100.00
83200;BME280;73092;49.132;8.920;2023-12-14T05:40:49;98828.97;;;6.07;100.00
83200;BME280;73092;49.132;8.920;2023-12-14T05:43:15;98829.03;;;6.04;100.00
83200;BME280;73092;49.132;8.920;2023-12-14T05:45:40;98828.22;;;6.02;100.00
83200;BME280;73092;49.132;8.920;2023-12-14T05:48:06;98827.38;;;6.00;100.00
83200;BME280;73092;49.132;8.920;2023-12-14T05:50:31;98835.22;;;5.98;100.00
83200;BME280;73092;49.132;8.920;2023-12-14T05:52:57;98839.59;;;5.98;100.00
83200;BME280;73092;49.132;8.920;2023-12-14T05:55:22;98839.59;;;5.98;100.00
83200;BME280;73092;49.132;8.920;2023-12-14T05:57:48;98844.63;;;6.07;100.00
83200;BME280;73092;49.132;8.920;2023-12-14T06:00:14;98846.31;;;6.11;100.00
83200;BME280;73092;49.132;8.920;2023-12-14T06:02:39;98853.34;;;6.06;100.00
83200;BME280;73092;49.132;8.920;2023-12-14T06:05:06;98856.16;;;5.97;100.00
83200;BME280;73092;49.132;8.920;2023-12-14T06:07:31;98852.78;;;5.90;100.00
83200;BME280;73092;49.132;8.920;2023-12-14T06:09:57;98857.19;;;5.87;100.00
83200;BME280;73092;49.132;8.920;2023-12-14T06:12:22;98852.81;;;5.87;100.00
83200;BME280;73092;49.132;8.920;2023-12-14T06:14:47;98868.50;;;5.86;100.00
83200;BME280;73092;49.132;8.920;2023-12-14T06:17:13;98866.91;;;5.78;100.00
83200;BME280;73092;49.132;8.920;2023-12-14T06:19:38;98873.06;;;5.74;100.00
83200;BME280;73092;49.132;8.920;2023-12-14T06:22:03;98885.22;;;5.75;100.00
83200;BME280;73092;49.132;8.920;2023-12-14T06:24:29;98887.88;;;5.74;100.00
83200;BME280;73092;49.132;8.920;2023-12-14T06:26:54;98897.41;;;5.73;100.00
83200;BME280;73092;49.132;8.920;2023-12-14T06:29:22;98904.22;;;5.82;100.00
83200;BME280;73092;49.132;8.920;2023-12-14T06:31:48;98912.03;;;5.84;100.00
83200;BME280;73092;49.132;8.920;2023-12-14T06:34:14;98915.50;;;5.83;100.00
83200;BME280;73092;49.132;8.920;2023-12-14T06:36:44;98923.28;;;5.86;100.00
83200;BME280;73092;49.132;8.920;2023-12-14T06:39:09;98916.28;;;5.88;100.00
83200;BME280;73092;49.132;8.920;2023-12-14T06:41:35;98923.28;;;5.86;100.00
83200;BME280;73092;49.132;8.920;2023-12-14T06:44:01;98921.56;;;5.85;100.00
83200;BME280;73092;49.132;8.920;2023-12-14T06:46:26;98922.47;;;5.84;100.00
83200;BME280;73092;49.132;8.920;2023-12-14T06:48:51;98925.94;;;5.84;100.00
83200;BME280;73092;49.132;8.920;2023-12-14T06:51:18;98934.59;;;5.85;100.00
83200;BME280;73092;49.132;8.920;2023-12-14T06:53:44;98945.94;;;5.84;100.00
83200;BME280;73092;49.132;8.920;2023-12-14T06:56:11;98952.75;;;5.91;100.00
83200;BME280;73092;49.132;8.920;2023-12-14T06:58:38;98958.69;;;6.00;100.00
83200;BME280;73092;49.132;8.920;2023-12-14T07:01:04;98960.47;;;5.98;100.00
83200;BME280;73092;49.132;8.920;2023-12-14T07:03:30;98967.53;;;5.93;100.00
83200;BME280;73092;49.132;8.920;2023-12-14T07:05:55;98970.78;;;6.05;100.00
83200;BME280;73092;49.132;8.920;2023-12-14T07:08:20;98969.97;;;6.02;100.00
83200;BME280;73092;49.132;8.920;2023-12-14T07:10:46;98979.63;;;5.99;100.00
83200;BME280;73092;49.132;8.920;2023-12-14T07:13:11;98993.53;;;5.98;100.00
83200;BME280;73092;49.132;8.920;2023-12-14T07:15:36;98989.16;;;6.00;100.00
83200;BME280;73092;49.132;8.920;2023-12-14T07:18:02;98993.53;;;5.98;100.00
83200;BME280;73092;49.132;8.920;2023-12-14T07:20:27;98993.38;;;6.07;100.00
83200;BME280;73092;49.132;8.920;2023-12-14T07:22:52;98994.31;;;6.03;100.00
83200;BME280;73092;49.132;8.920;2023-12-14T07:25:18;98994.31;;;6.03;100.00
83200;BME280;73092;49.132;8.920;2023-12-14T07:27:43;98997.81;;;6.02;100.00
83200;BME280;73092;49.132;8.920;2023-12-14T07:30:09;99006.47;;;6.04;100.00
83200;BME280;73092;49.132;8.920;2023-12-14T07:32:35;99008.22;;;6.05;100.00
83200;BME280;73092;49.132;8.920;2023-12-14T07:35:00;99023.88;;;6.05;100.00
83200;BME280;73092;49.132;8.920;2023-12-14T07:37:25;99017.59;;;6.15;100.00
83200;BME280;73092;49.132;8.920;2023-12-14T07:39:51;99017.66;;;6.12;100.00
83200;BME280;73092;49.132;8.920;2023-12-14T07:42:17;99031.66;;;6.08;100.00
83200;BME280;73092;49.132;8.920;2023-12-14T07:44:45;99041.22;;;6.06;100.00
83200;BME280;73092;49.132;8.920;2023-12-14T07:47:10;99053.22;;;6.18;100.00
83200;BME280;73092;49.132;8.920;2023-12-14T07:49:36;99040.97;;;6.21;100.00
83200;BME280;73092;49.132;8.920;2023-12-14T07:52:01;99054.66;;;6.33;100.00
83200;BME280;73092;49.132;8.920;2023-12-14T07:54:26;99054.72;;;6.30;100.00
83200;BME280;73092;49.132;8.920;2023-12-14T07:56:52;99061.81;;;6.24;100.00
83200;BME280;73092;49.132;8.920;2023-12-14T07:59:17;99067.06;;;6.21;100.00
83200;BME280;73092;49.132;8.920;2023-12-14T08:01:43;99067.94;;;6.22;100.00
83200;BME280;73092;49.132;8.920;2023-12-14T08:04:08;99076.66;;;6.21;100.00
83200;BME280;73092;49.132;8.920;2023-12-14T08:06:35;99075.78;;;6.20;100.00
83200;BME280;73092;49.132;8.920;2023-12-14T08:09:00;99084.41;;;6.25;100.00
83200;BME280;73092;49.132;8.920;2023-12-14T08:11:27;99085.25;;;6.28;100.00
83200;BME280;73092;49.132;8.920;2023-12-14T08:13:52;99097.94;;;6.47;100.00
83200;BME280;73092;49.132;8.920;2023-12-14T08:16:17;99096.22;;;6.46;100.00
83200;BME280;73092;49.132;8.920;2023-12-14T08:18:43;99104.06;;;6.45;100.00
83200;BME280;73092;49.132;8.920;2023-12-14T08:21:11;99108.41;;;6.46;100.00
83200;BME280;73092;49.132;8.920;2023-12-14T08:23:36;99117.06;;;6.48;100.00
83200;BME280;73092;49.132;8.920;2023-12-14T08:26:02;99118.69;;;6.55;100.00
83200;BME280;73092;49.132;8.920;2023-12-14T08:28:27;99128.19;;;6.59;100.00
83200;BME280;73092;49.132;8.920;2023-12-14T08:30:53;99133.44;;;6.58;100.00
83200;BME280;73092;49.132;8.920;2023-12-14T08:33:18;99129.91;;;6.60;100.00
83200;BME280;73092;49.132;8.920;2023-12-14T08:35:44;99142.81;;;6.69;100.00
83200;BME280;73092;49.132;8.920;2023-12-14T08:38:10;99147.31;;;6.61;100.00
83200;BME280;73092;49.132;8.920;2023-12-14T08:40:36;99162.19;;;6.56;100.00
83200;BME280;73092;49.132;8.920;2023-12-14T08:43:01;99160.50;;;6.55;100.00
83200;BME280;73092;49.132;8.920;2023-12-14T08:45:28;99159.75;;;6.45;100.00
83200;BME280;73092;49.132;8.920;2023-12-14T08:47:53;99165.88;;;6.44;100.00
83200;BME280;73092;49.132;8.920;2023-12-14T08:50:18;99174.47;;;6.51;100.00
83200;BME280;73092;49.132;8.920;2023-12-14T08:52:44;99177.06;;;6.51;100.00
83200;BME280;73092;49.132;8.920;2023-12-14T08:55:09;99190.09;;;6.54;100.00
83200;BME280;73092;49.132;8.920;2023-12-14T08:57:35;99187.41;;;6.59;100.00
83200;BME280;73092;49.132;8.920;2023-12-14T09:00:01;99194.41;;;6.57;100.00
83200;BME280;73092;49.132;8.920;2023-12-14T09:02:29;99203.84;;;6.65;100.00
83200;BME280;73092;49.132;8.920;2023-12-14T09:04:55;99210.81;;;6.63;100.00
83200;BME280;73092;49.132;8.920;2023-12-14T09:07:20;99212.50;;;6.67;100.00
83200;BME280;73092;49.132;8.920;2023-12-14T09:09:46;99214.19;;;6.71;100.00
83200;BME280;73092;49.132;8.920;2023-12-14T09:12:11;99222.88;;;6.70;100.00
83200;BME280;73092;49.132;8.920;2023-12-14T09:14:37;99226.34;;;6.72;100.00
83200;BME280;73092;49.132;8.920;2023-12-14T09:17:02;99227.19;;;6.75;100.00
83200;BME280;73092;49.132;8.920;2023-12-14T09:19:30;99237.56;;;6.79;100.00
83200;BME280;73092;49.132;8.920;2023-12-14T09:21:56;99240.22;;;6.78;100.00
83200;BME280;73092;49.132;8.920;2023-12-14T09:24:22;99243.69;;;6.77;100.00
83200;BME280;73092;49.132;8.920;2023-12-14T09:26:48;99246.28;;;6.78;100.00
83200;BME280;73092;49.132;8.920;2023-12-14T09:29:13;99246.28;;;6.77;100.00
83200;BME280;73092;49.132;8.920;2023-12-14T09:31:43;99254.13;;;6.77;100.00
83200;BME280;73092;49.132;8.920;2023-12-14T09:34:10;99250.72;;;6.75;100.00
83200;BME280;73092;49.132;8.920;2023-12-14T09:36:36;99261.00;;;6.84;100.00
83200;BME280;73092;49.132;8.920;2023-12-14T09:39:02;99261.00;;;6.84;100.00
83200;BME280;73092;49.132;8.920;2023-12-14T09:41:28;99261.06;;;6.81;100.00
83200;BME280;73092;49.132;8.920;2023-12-14T09:43:53;99272.38;;;6.80;100.00
83200;BME280;73092;49.132;8.920;2023-12-14T09:46:19;99276.78;;;6.78;100.00
83200;BME280;73092;49.132;8.920;2023-12-14T09:48:46;99287.25;;;6.78;100.00
83200;BME280;73092;49.132;8.920;2023-12-14T09:51:12;99283.78;;;6.76;100.00
83200;BME280;73092;49.132;8.920;2023-12-14T09:53:37;99285.50;;;6.77;100.00
83200;BME280;73092;49.132;8.920;2023-12-14T09:56:03;99289.00;;;6.76;100.00
83200;BME280;73092;49.132;8.920;2023-12-14T09:58:32;99292.50;;;6.75;100.00
83200;BME280;73092;49.132;8.920;2023-12-14T10:00:58;99292.41;;;6.81;100.00
83200;BME280;73092;49.132;8.920;2023-12-14T10:03:27;99294.88;;;6.88;100.00
83200;BME280;73092;49.132;8.920;2023-12-14T10:05:57;99302.72;;;6.90;100.00
83200;BME280;73092;49.132;8.920;2023-12-14T10:08:24;99310.50;;;6.91;100.00
83200;BME280;73092;49.132;8.920;2023-12-14T10:10:52;99313.13;;;6.91;100.00
83200;BME280;73092;49.132;8.920;2023-12-14T10:13:35;99312.31;;;6.89;100.00
83200;BME280;73092;49.132;8.920;2023-12-14T10:16:03;99320.13;;;6.91;100.00
83200;BME280;73092;49.132;8.920;2023-12-14T10:18:31;99318.31;;;6.94;100.00
83200;BME280;73092;49.132;8.920;2023-12-14T10:20:56;99321.72;;;6.98;100.00
83200;BME280;73092;49.132;8.920;2023-12-14T10:23:22;99333.09;;;6.97;100.00
83200;BME280;73092;49.132;8.920;2023-12-14T10:25:47;99322.59;;;6.99;100.00
83200;BME280;73092;49.132;8.920;2023-12-14T10:28:13;99329.56;;;7.00;100.00
83200;BME280;73092;49.132;8.920;2023-12-14T10:30:39;99338.13;;;7.08;100.00
83200;BME280;73092;49.132;8.920;2023-12-14T10:33:05;99334.56;;;7.13;100.00
83200;BME280;73092;49.132;8.920;2023-12-14T10:35:31;99335.34;;;7.18;100.00
83200;BME280;73092;49.132;8.920;2023-12-14T10:38:01;99327.34;;;7.26;100.00
83200;BME280;73092;49.132;8.920;2023-12-14T10:40:28;99332.44;;;7.35;100.00
83200;BME280;73092;49.132;8.920;2023-12-14T10:42:55;99327.84;;;7.48;100.00
83200;BME280;73092;49.132;8.920;2023-12-14T10:45:27;99327.66;;;7.59;100.00
83200;BME280;73092;49.132;8.920;2023-12-14T10:47:54;99329.09;;;7.74;100.00
83200;BME280;73092;49.132;8.920;2023-12-14T10:50:20;99335.03;;;7.83;100.00
83200;BME280;73092;49.132;8.920;2023-12-14T10:52:47;99331.53;;;7.83;100.00
83200;BME280;73092;49.132;8.920;2023-12-14T10:55:22;99334.16;;;7.83;100.00
83200;BME280;73092;49.132;8.920;2023-12-14T10:57:52;99335.13;;;7.79;100.00
83200;BME280;73092;49.132;8.920;2023-12-14T11:00:18;99339.50;;;7.77;100.00
83200;BME280;73092;49.132;8.920;2023-12-14T11:02:46;99335.91;;;7.84;100.00
83200;BME280;73092;49.132;8.920;2023-12-14T11:05:14;99344.50;;;7.89;100.00
83200;BME280;73092;49.132;8.920;2023-12-14T11:07:52;99350.47;;;7.96;100.00
83200;BME280;73092;49.132;8.920;2023-12-14T11:10:36;99359.22;;;7.96;100.00
83200;BME280;73092;49.132;8.920;2023-12-14T11:13:04;99358.59;;;7.83;100.00
83200;BME280;73092;49.132;8.920;2023-12-14T11:15:33;99363.84;;;7.82;100.00
83200;BME280;73092;49.132;8.920;2023-12-14T11:25:51;99373.75;;;7.64;100.00
83200;BME280;73092;49.132;8.920;2023-12-14T11:28:17;99378.09;;;7.65;100.00
83200;BME280;73092;49.132;8.920;2023-12-14T11:30:46;99390.34;;;7.63;100.00
83200;BME280;73092;49.132;8.920;2023-12-14T11:33:12;99387.69;;;7.67;100.00
83200;BME280;73092;49.132;8.920;2023-12-14T11:35:38;99390.25;;;7.70;100.00
83200;BME280;73092;49.132;8.920;2023-12-14T11:38:04;99398.94;;;7.72;100.00
83200;BME280;73092;49.132;8.920;2023-12-14T11:40:36;99398.03;;;7.73;100.00
83200;BME280;73092;49.132;8.920;2023-12-14T11:43:03;99405.78;;;7.79;100.00
83200;BME280;73092;49.132;8.920;2023-12-14T11:45:36;99407.66;;;7.71;100.00
83200;BME280;73092;49.132;8.920;2023-12-14T11:48:10;99410.38;;;7.64;100.00
83200;BME280;73092;49.132;8.920;2023-12-14T11:50:40;99409.78;;;7.50;100.00
83200;BME280;73092;49.132;8.920;2023-12-14T11:53:05;99417.81;;;7.38;100.00
83200;BME280;73092;49.132;8.920;2023-12-14T11:55:34;99419.88;;;7.19;100.00
83200;BME280;73092;49.132;8.920;2023-12-14T11:58:00;99416.50;;;7.12;100.00
83200;BME280;73092;49.132;8.920;2023-12-14T12:00:27;99425.31;;;7.04;100.00
83200;BME280;73092;49.132;8.920;2023-12-14T12:03:14;99430.69;;;6.96;100.00
83200;BME280;73092;49.132;8.920;2023-12-14T12:05:45;99431.69;;;6.86;100.00
83200;BME280;73092;49.132;8.920;2023-12-14T12:08:12;99432.69;;;6.76;100.00
83200;BME280;73092;49.132;8.920;2023-12-14T12:10:38;99430.16;;;6.69;100.00
83200;BME280;73092;49.132;8.920;2023-12-14T12:13:11;99430.22;;;6.66;100.00
83200;BME280;73092;49.132;8.920;2023-12-14T12:15:36;99432.84;;;6.63;100.00
83200;BME280;73092;49.132;8.920;2023-12-14T12:18:04;99443.41;;;6.56;100.00
83200;BME280;73092;49.132;8.920;2023-12-14T12:20:30;99445.41;;;6.37;100.00
83200;BME280;73092;49.132;8.920;2023-12-14T12:22:56;99444.50;;;6.38;100.00
83200;BME280;73092;49.132;8.920;2023-12-14T12:25:21;99442.75;;;6.40;100.00
83200;BME280;73092;49.132;8.920;2023-12-14T12:27:48;99445.41;;;6.37;100.00
83200;BME280;73092;49.132;8.920;2023-12-14T12:30:13;99446.19;;;6.42;100.00
83200;BME280;73092;49.132;8.920;2023-12-14T12:32:40;99451.34;;;6.48;100.00
83200;BME280;73092;49.132;8.920;2023-12-14T12:35:06;99454.75;;;6.53;100.00
83200;BME280;73092;49.132;8.920;2023-12-14T12:37:31;99457.84;;;6.83;100.00
83200;BME280;73092;49.132;8.920;2023-12-14T12:39:57;99458.59;;;6.92;100.00
83200;BME280;73092;49.132;8.920;2023-12-14T12:42:22;99445.69;;;6.82;100.00
83200;BME280;73092;49.132;8.920;2023-12-14T12:44:47;99450.88;;;6.85;100.00
83200;BME280;73092;49.132;8.920;2023-12-14T12:47:13;99459.56;;;6.87;100.00
83200;BME280;73092;49.132;8.920;2023-12-14T12:49:38;99458.63;;;6.91;100.00
83200;BME280;73092;49.132;8.920;2023-12-14T12:52:04;99462.03;;;6.96;100.00
83200;BME280;73092;49.132;8.920;2023-12-14T12:54:31;99459.56;;;6.87;100.00
83200;BME280;73092;49.132;8.920;2023-12-14T12:56:58;99468.13;;;6.95;100.00
83200;BME280;73092;49.132;8.920;2023-12-14T12:59:23;99465.56;;;6.92;100.00
83200;BME280;73092;49.132;8.920;2023-12-14T13:01:48;99469.19;;;6.83;100.00